Kezdőlap
METAR-TAF:

METAR-TAF

Repülőterek :

Erie, Colorado, Amerikai Egyesült Államok

földrajzi szélesség: 40-00-37N, földrajzi hosszúság: 105-02-53W, magasság: 1564 m

Jelenlegi meteorológiai megfigyelések

A jelentés 10 perccel ezelõtt készült, 13:42 UTC
Szélcsend
Hőmérséklet -8°C
Páratartalom 92%
Légköri nyomás 1025 hPa
Látótávolság: 16.1 km
Derült ég

METAR: KEIK 181342Z AUTO 00000KT 10SM CLR M08/M09 A3026 RMK AO2 T10801090

Idő: 06:52 (13:52 UTC)


TAF: hiányzik

Meteorológiai megfigyelések és előrejelzések több, mint 4000 repülőtéren (METAR és TAF jelentéseket).

A térképen piros és sárga pontok jelzik az elérhető meteorológiai állomásokat.

Mozgassa az egeret a pont fölött, hogy megjelenjen az állomás neve.

Azután kattintson az időjárási megfigyelések és előrejelzések megtekintéséhez.

A térkép megváltoztatása: kattintson a fekete keresztel jelölt zöld gombra ráközelítéshez, a vonallal jelölt zöld gombra távolításhoz, vagy a zöld nyilakra a szomszédos térképek eléréséhez.


METAR-TAF: